createdAt,value
2022-09-01T08:50:15.236Z,1.88
2022-09-01T08:55:22.223Z,2.00
2022-09-01T09:00:30.411Z,1.92
2022-09-01T09:05:32.117Z,2.10
2022-09-01T09:10:49.647Z,2.00
2022-09-01T09:15:51.648Z,1.65
2022-09-01T09:20:53.770Z,1.60
2022-09-01T09:25:56.825Z,1.80
2022-09-01T09:31:33.940Z,1.63
2022-09-01T09:36:37.471Z,1.63
2022-09-01T09:41:40.989Z,1.60
2022-09-01T09:46:47.445Z,1.40
2022-09-01T09:51:52.214Z,1.60
2022-09-01T09:57:09.264Z,1.50
2022-09-01T10:02:27.978Z,3.47
2022-09-01T10:07:36.793Z,1.40
2022-09-01T10:12:38.536Z,1.30
2022-09-01T10:17:44.126Z,1.25
2022-09-01T10:22:48.534Z,1.52
2022-09-01T10:27:58.376Z,1.17
2022-09-01T10:33:11.036Z,1.58
2022-09-01T10:38:29.411Z,1.85
2022-09-01T10:43:41.492Z,1.40
2022-09-01T10:48:52.041Z,1.10
2022-09-01T10:54:02.165Z,1.02
2022-09-01T10:59:37.385Z,1.20
2022-09-01T11:04:40.974Z,1.13
2022-09-01T11:10:11.765Z,0.85
2022-09-01T11:15:17.014Z,1.00
2022-09-01T11:20:34.786Z,0.90
2022-09-01T11:31:22.822Z,0.93
2022-09-01T11:36:35.067Z,0.80
2022-09-01T11:41:39.747Z,0.90
2022-09-01T11:46:45.714Z,1.00
2022-09-01T11:51:48.531Z,1.05
2022-09-01T11:56:50.362Z,0.93
2022-09-01T12:01:58.201Z,1.30
2022-09-01T12:07:10.859Z,0.90
2022-09-01T12:12:35.954Z,0.93
2022-09-01T12:17:37.889Z,1.20
2022-09-01T12:22:43.473Z,1.02
2022-09-01T12:27:45.287Z,0.90
2022-09-01T12:32:47.515Z,0.82
2022-09-01T12:37:50.433Z,0.90
2022-09-01T12:42:53.614Z,1.00
2022-09-01T12:47:55.338Z,0.80
2022-09-01T12:53:00.071Z,0.95
2022-09-01T12:58:07.676Z,0.70
2022-09-01T13:03:15.570Z,0.70
2022-09-01T13:08:19.881Z,0.98
2022-09-01T13:13:24.229Z,0.85
2022-09-01T13:18:27.124Z,0.68
2022-09-01T13:23:28.853Z,0.77
2022-09-01T13:28:31.987Z,0.82
2022-09-01T13:34:09.269Z,0.70
2022-09-01T13:38:57.384Z,0.85
2022-09-01T13:43:59.505Z,0.60
2022-09-01T13:49:04.366Z,0.80
2022-09-01T13:54:06.639Z,0.80
2022-09-01T13:59:08.352Z,1.00
2022-09-01T14:04:10.392Z,0.60
2022-09-01T14:09:17.693Z,1.02
2022-09-01T14:14:19.589Z,0.50
2022-09-01T14:19:21.331Z,0.73
2022-09-01T14:24:23.196Z,0.80
2022-09-01T14:29:25.501Z,0.73
2022-09-01T14:34:27.249Z,0.77
2022-09-01T14:39:30.854Z,0.60
2022-09-01T14:44:34.485Z,0.70
2022-09-01T14:49:37.011Z,0.57
2022-09-01T14:54:40.454Z,0.95
2022-09-01T14:59:42.213Z,0.80
2022-09-01T15:04:44.042Z,0.80
2022-09-01T15:09:45.771Z,0.98
2022-09-01T15:14:47.499Z,0.70
2022-09-01T15:19:49.255Z,0.65
2022-09-01T15:24:51.042Z,0.70
2022-09-01T15:29:52.761Z,1.00
2022-09-01T15:34:56.208Z,0.55
2022-09-01T15:39:57.890Z,0.70
2022-09-01T15:44:59.964Z,0.75
2022-09-01T15:50:05.259Z,0.70
2022-09-01T15:55:07.392Z,0.70
2022-09-01T16:00:11.283Z,0.60
2022-09-01T16:05:14.062Z,0.80
2022-09-01T16:10:15.786Z,0.63
2022-09-01T16:15:20.533Z,0.90
2022-09-01T16:20:30.283Z,0.75
2022-09-01T16:25:34.707Z,0.73
2022-09-01T16:30:36.847Z,0.73
2022-09-01T16:35:50.837Z,0.98
2022-09-01T16:41:43.986Z,0.82
2022-09-01T16:47:18.377Z,0.90
2022-09-01T16:52:28.999Z,1.00
2022-09-01T16:57:46.102Z,0.98
2022-09-01T17:02:58.242Z,1.30
2022-09-01T17:08:12.784Z,1.10
2022-09-01T17:13:20.349Z,1.10
2022-09-01T17:18:33.815Z,1.20
2022-09-01T17:23:41.792Z,1.10
2022-09-01T17:28:51.953Z,1.00
2022-09-01T17:34:11.075Z,1.13
2022-09-01T17:39:27.580Z,1.40
2022-09-01T17:44:47.039Z,1.23
2022-09-01T17:50:05.787Z,1.20
2022-09-01T17:55:22.424Z,1.70
2022-09-01T18:00:51.089Z,1.67
2022-09-01T18:05:52.807Z,2.00
2022-09-01T18:11:16.401Z,1.60
2022-09-01T18:16:25.429Z,1.80
2022-09-01T18:21:40.077Z,1.95
2022-09-01T18:26:47.651Z,1.55
2022-09-01T18:32:17.914Z,1.67
2022-09-01T18:37:32.189Z,1.50
2022-09-01T18:43:03.519Z,1.90
2022-09-01T18:48:17.266Z,2.70
2022-09-01T18:53:28.978Z,2.33
2022-09-01T18:59:01.648Z,2.60
2022-09-01T19:04:22.156Z,2.40
2022-09-01T19:09:28.671Z,1.90
2022-09-01T19:14:48.658Z,2.45
2022-09-01T19:19:57.671Z,1.85
2022-09-01T19:25:28.039Z,1.98
2022-09-01T19:30:35.362Z,2.00
2022-09-01T19:35:40.393Z,1.90
2022-09-01T19:40:45.127Z,2.13
2022-09-01T19:46:01.311Z,2.30
2022-09-01T19:51:17.525Z,2.20
2022-09-01T19:56:29.347Z,2.28
2022-09-01T20:01:59.056Z,2.10
2022-09-01T20:07:01.945Z,2.22
2022-09-01T20:12:22.325Z,2.25
2022-09-01T20:17:47.836Z,2.60
2022-09-01T20:23:01.582Z,2.10
2022-09-01T20:28:05.630Z,2.50
2022-09-01T20:33:36.624Z,2.60
2022-09-01T20:39:19.213Z,2.33
2022-09-01T20:44:49.385Z,2.50
2022-09-01T20:49:51.182Z,2.78
2022-09-01T20:54:55.537Z,3.60
2022-09-01T21:00:25.974Z,3.55
2022-09-01T21:05:41.167Z,3.40
2022-09-01T21:11:01.179Z,3.38
2022-09-01T21:16:18.920Z,3.95
2022-09-01T21:21:20.692Z,3.95
2022-09-01T21:26:22.901Z,3.63
2022-09-01T21:31:24.939Z,3.97
2022-09-01T21:36:26.880Z,4.25
2022-09-01T21:41:28.621Z,4.75
2022-09-01T21:46:30.907Z,4.45
2022-09-01T21:51:32.748Z,4.30
2022-09-01T21:56:35.098Z,4.50
2022-09-01T22:01:37.049Z,4.32
2022-09-01T22:06:40.225Z,4.00
2022-09-01T22:11:42.522Z,3.70
2022-09-01T22:16:44.669Z,3.33
2022-09-01T22:21:46.781Z,3.50
2022-09-01T22:26:48.673Z,2.97
2022-09-01T22:31:50.661Z,2.97
2022-09-01T22:36:52.484Z,2.90
2022-09-01T22:41:54.919Z,2.75
2022-09-01T22:46:57.062Z,2.45
2022-09-01T22:51:58.722Z,2.50
2022-09-01T22:57:02.231Z,2.53
2022-09-01T23:02:04.066Z,2.38
2022-09-01T23:07:07.132Z,2.63
2022-09-01T23:12:09.185Z,2.40
2022-09-01T23:17:10.931Z,2.50
2022-09-01T23:22:12.981Z,2.42
2022-09-01T23:27:14.703Z,2.47
2022-09-01T23:32:16.476Z,2.47
2022-09-01T23:37:18.208Z,2.40
2022-09-01T23:42:23.250Z,2.45
2022-09-01T23:47:25.067Z,2.42
2022-09-01T23:52:26.896Z,2.60
2022-09-01T23:57:28.608Z,2.60
